Time;durP1;ratioP1;P1;durP2;ratioP2;P2;SDS_P1;SDS_P2;PMS_P1;PMS_P2;Temp;Humidity;BMP_temperature;BMP_pressure;BME280_temperature;BME280_humidity;BME280_pressure;Samples;Min_cycle;Max_cycle;Signal;HPM_P1;HPM_P2
2023/04/16 00:01:09;;;;;;;23.40;16.80;;;;;;;;;;5090716;28;20101;-67
2023/04/16 00:03:35;;;;;;;23.92;18.02;;;;;;;;;;5091924;28;20016;-67
2023/04/16 00:06:01;;;;;;;22.83;17.27;;;;;;;;;;5088266;28;20537;-68
2023/04/16 00:08:27;;;;;;;24.08;17.88;;;;;;;;;;5088267;28;20024;-67
2023/04/16 00:10:53;;;;;;;27.85;17.88;;;;;;;;;;5087366;28;20027;-67
2023/04/16 00:13:19;;;;;;;25.25;18.30;;;;;;;;;;5091633;28;20032;-67
2023/04/16 00:15:45;;;;;;;24.60;17.88;;;;;;;;;;5090222;28;20016;-67
2023/04/16 00:18:11;;;;;;;25.13;18.48;;;;;;;;;;5091067;28;20030;-67
2023/04/16 00:20:37;;;;;;;27.13;20.35;;;;;;;;;;5091734;28;20372;-67
2023/04/16 00:23:03;;;;;;;23.45;17.63;;;;;;;;;;5092746;28;20024;-67
2023/04/16 00:25:30;;;;;;;22.45;16.75;;;;;;;;;;5092593;28;20461;-67
2023/04/16 00:27:56;;;;;;;22.33;17.17;;;;;;;;;;5090267;28;20028;-67
2023/04/16 00:30:22;;;;;;;25.00;18.83;;;;;;;;;;5091275;28;20031;-67
2023/04/16 00:32:48;;;;;;;22.85;17.75;;;;;;;;;;5090691;28;20028;-69
2023/04/16 00:35:14;;;;;;;23.58;17.92;;;;;;;;;;5077119;28;20096;-67
2023/04/16 00:37:40;;;;;;;23.05;17.38;;;;;;;;;;5090803;28;20036;-67
2023/04/16 00:40:06;;;;;;;23.88;17.00;;;;;;;;;;5092112;28;20187;-68
2023/04/16 00:42:33;;;;;;;26.45;18.48;;;;;;;;;;5091243;28;20031;-67
2023/04/16 00:44:59;;;;;;;25.83;18.70;;;;;;;;;;5090322;28;20061;-68
2023/04/16 00:47:26;;;;;;;24.77;18.45;;;;;;;;;;5100638;28;20461;-67
2023/04/16 00:49:53;;;;;;;30.55;19.17;;;;;;;;;;5095044;28;20491;-68
2023/04/16 00:52:19;;;;;;;21.98;17.42;;;;;;;;;;5090923;28;20522;-67
2023/04/16 00:54:45;;;;;;;23.33;16.80;;;;;;;;;;5078883;28;20025;-67
2023/04/16 00:57:12;;;;;;;21.88;17.23;;;;;;;;;;5091741;28;20031;-67
2023/04/16 00:59:38;;;;;;;23.65;17.45;;;;;;;;;;5091221;28;20099;-67
2023/04/16 01:02:04;;;;;;;22.80;17.02;;;;;;;;;;5091848;28;20413;-67
2023/04/16 01:04:31;;;;;;;26.13;18.17;;;;;;;;;;5095011;28;20032;-67
2023/04/16 01:06:57;;;;;;;23.42;17.35;;;;;;;;;;5093939;28;20063;-68
2023/04/16 01:09:23;;;;;;;21.48;17.20;;;;;;;;;;5086874;28;20024;-68
2023/04/16 01:11:49;;;;;;;23.38;18.00;;;;;;;;;;5092477;28;20168;-69
2023/04/16 01:14:15;;;;;;;20.48;16.10;;;;;;;;;;5098867;28;20484;-68
2023/04/16 01:16:41;;;;;;;25.50;17.90;;;;;;;;;;5097395;28;20056;-68
2023/04/16 01:19:07;;;;;;;23.65;16.08;;;;;;;;;;5093790;28;20020;-68
2023/04/16 01:21:33;;;;;;;20.30;16.10;;;;;;;;;;5094584;28;20031;-68
2023/04/16 01:24:06;;;;;;;20.95;15.60;;;;;;;;;;5094007;28;20017;-68
2023/04/16 01:26:32;;;;;;;21.27;15.93;;;;;;;;;;5094197;28;20051;-67
2023/04/16 01:28:58;;;;;;;23.52;16.27;;;;;;;;;;5093431;28;20468;-68
2023/04/16 01:31:25;;;;;;;19.33;14.32;;;;;;;;;;5096264;28;20125;-68
2023/04/16 01:33:51;;;;;;;23.23;16.35;;;;;;;;;;5093984;28;20107;-69
2023/04/16 01:36:17;;;;;;;23.98;16.17;;;;;;;;;;5093845;28;20070;-68
2023/04/16 01:38:43;;;;;;;19.38;14.57;;;;;;;;;;5094072;28;20143;-67
2023/04/16 01:41:09;;;;;;;19.42;15.40;;;;;;;;;;5093226;28;20063;-68
2023/04/16 01:43:35;;;;;;;22.20;15.77;;;;;;;;;;5094463;28;20059;-67
2023/04/16 01:46:14;;;;;;;19.45;14.77;;;;;;;;;;5092982;28;20270;-67
2023/04/16 01:48:40;;;;;;;20.60;15.15;;;;;;;;;;5095186;28;20029;-68
2023/04/16 01:51:06;;;;;;;18.88;14.75;;;;;;;;;;5097701;28;20031;-68
2023/04/16 01:53:32;;;;;;;18.70;14.50;;;;;;;;;;5094184;28;20110;-67
2023/04/16 01:55:58;;;;;;;19.05;14.68;;;;;;;;;;5103723;28;20031;-68
2023/04/16 01:58:24;;;;;;;20.33;13.40;;;;;;;;;;5094250;28;20028;-67
2023/04/16 02:00:50;;;;;;;18.95;13.68;;;;;;;;;;5085701;28;20346;-69
2023/04/16 02:03:17;;;;;;;17.77;13.15;;;;;;;;;;5093692;28;20085;-67
2023/04/16 02:05:43;;;;;;;17.38;12.75;;;;;;;;;;5090493;28;20381;-67
2023/04/16 02:08:09;;;;;;;17.52;13.38;;;;;;;;;;5095586;28;20016;-67
2023/04/16 02:10:35;;;;;;;18.05;13.77;;;;;;;;;;5084854;28;20024;-68
2023/04/16 02:13:01;;;;;;;16.92;12.88;;;;;;;;;;5091174;28;20032;-67
2023/04/16 02:15:27;;;;;;;20.77;15.57;;;;;;;;;;5093683;28;20032;-67
2023/04/16 02:17:55;;;;;;;19.38;13.95;;;;;;;;;;5092532;28;20031;-68
2023/04/16 02:20:21;;;;;;;18.88;14.13;;;;;;;;;;5093814;28;20035;-67
2023/04/16 02:22:47;;;;;;;20.00;15.52;;;;;;;;;;5088789;28;20481;-69
2023/04/16 02:25:13;;;;;;;19.02;14.00;;;;;;;;;;5098889;28;20147;-68
2023/04/16 02:27:39;;;;;;;22.33;15.57;;;;;;;;;;5093207;28;20028;-68
2023/04/16 02:30:06;;;;;;;18.20;14.05;;;;;;;;;;5092054;28;20405;-68
2023/04/16 02:32:32;;;;;;;20.50;14.75;;;;;;;;;;5092642;28;20384;-68
2023/04/16 02:34:58;;;;;;;20.88;14.90;;;;;;;;;;5074355;28;20477;-69
2023/04/16 02:37:24;;;;;;;20.00;14.40;;;;;;;;;;5088046;28;20045;-68
2023/04/16 02:39:52;;;;;;;20.00;14.50;;;;;;;;;;5084504;28;20028;-69
2023/04/16 02:42:18;;;;;;;20.35;15.00;;;;;;;;;;5096256;28;20020;-68
2023/04/16 02:44:44;;;;;;;17.83;13.30;;;;;;;;;;5093237;28;20016;-68
2023/04/16 02:47:09;;;;;;;21.52;15.35;;;;;;;;;;5091728;28;20026;-68
2023/04/16 02:49:35;;;;;;;19.10;14.90;;;;;;;;;;5093295;28;20024;-68
2023/04/16 02:52:01;;;;;;;18.17;14.32;;;;;;;;;;5091802;28;20035;-69
2023/04/16 02:54:27;;;;;;;20.15;14.43;;;;;;;;;;5093117;28;20020;-69
2023/04/16 02:56:53;;;;;;;21.08;15.40;;;;;;;;;;5096331;28;20020;-69
2023/04/16 02:59:19;;;;;;;23.95;15.68;;;;;;;;;;5090555;28;20471;-69
2023/04/16 03:01:45;;;;;;;21.60;15.27;;;;;;;;;;5088784;28;20054;-69
2023/04/16 03:04:11;;;;;;;22.35;15.90;;;;;;;;;;5092063;28;20031;-68
2023/04/16 03:06:37;;;;;;;20.50;15.35;;;;;;;;;;5074373;28;20074;-68
2023/04/16 03:09:03;;;;;;;21.38;14.95;;;;;;;;;;5088366;28;20024;-69
2023/04/16 03:11:29;;;;;;;23.25;15.75;;;;;;;;;;5099137;28;20024;-68
2023/04/16 03:13:55;;;;;;;22.25;15.43;;;;;;;;;;5096488;28;20072;-69
2023/04/16 03:16:21;;;;;;;22.67;15.90;;;;;;;;;;5089841;28;20031;-68
2023/04/16 03:18:47;;;;;;;20.67;14.32;;;;;;;;;;5094930;28;20081;-69
2023/04/16 03:21:13;;;;;;;23.25;15.75;;;;;;;;;;5091741;28;20024;-68
2023/04/16 03:23:39;;;;;;;22.55;15.25;;;;;;;;;;5092364;28;20373;-69
2023/04/16 03:26:05;;;;;;;21.95;14.55;;;;;;;;;;5072950;28;20028;-68
2023/04/16 03:28:31;;;;;;;21.90;14.70;;;;;;;;;;5092376;28;20039;-68
2023/04/16 03:30:57;;;;;;;22.40;15.63;;;;;;;;;;5090122;28;20020;-69
2023/04/16 03:33:23;;;;;;;21.75;14.63;;;;;;;;;;5094065;28;20031;-69
2023/04/16 03:35:56;;;;;;;21.58;14.25;;;;;;;;;;5091866;28;20054;-69
2023/04/16 03:38:22;;;;;;;26.35;16.73;;;;;;;;;;5091636;28;20055;-68
2023/04/16 03:40:48;;;;;;;24.80;16.65;;;;;;;;;;5091945;28;20058;-69
2023/04/16 03:43:14;;;;;;;23.83;15.65;;;;;;;;;;5089630;28;20036;-69
2023/04/16 03:45:43;;;;;;;24.95;16.88;;;;;;;;;;5080901;28;20020;-68
2023/04/16 03:48:10;;;;;;;25.35;16.08;;;;;;;;;;5088265;28;20138;-68
2023/04/16 03:50:35;;;;;;;28.08;17.00;;;;;;;;;;5088777;28;20036;-68
2023/04/16 03:53:01;;;;;;;23.85;15.68;;;;;;;;;;5090878;28;20056;-68
2023/04/16 03:55:28;;;;;;;21.85;15.40;;;;;;;;;;5099654;28;20153;-69
2023/04/16 03:57:54;;;;;;;24.50;15.85;;;;;;;;;;5082901;28;20461;-69
2023/04/16 04:00:20;;;;;;;22.77;16.00;;;;;;;;;;5084131;28;20027;-69
2023/04/16 04:02:46;;;;;;;25.00;16.80;;;;;;;;;;5091375;28;20373;-69
2023/04/16 04:05:12;;;;;;;25.30;18.02;;;;;;;;;;5091104;28;20016;-69
2023/04/16 04:07:38;;;;;;;26.75;17.63;;;;;;;;;;5091484;28;20032;-68
2023/04/16 04:10:04;;;;;;;26.25;18.05;;;;;;;;;;5088450;28;20027;-68
2023/04/16 04:12:31;;;;;;;28.35;18.40;;;;;;;;;;5091248;28;20024;-69
2023/04/16 04:14:57;;;;;;;31.50;20.13;;;;;;;;;;5090898;28;20043;-69
2023/04/16 04:17:23;;;;;;;28.35;17.58;;;;;;;;;;5090817;28;20027;-68
2023/04/16 04:19:49;;;;;;;27.05;18.13;;;;;;;;;;5091296;28;20077;-70
2023/04/16 04:22:15;;;;;;;28.27;18.23;;;;;;;;;;5088775;28;20035;-69
2023/04/16 04:24:41;;;;;;;29.63;17.30;;;;;;;;;;5098101;28;20029;-69
2023/04/16 04:27:07;;;;;;;27.98;18.95;;;;;;;;;;5089775;28;20032;-68
2023/04/16 04:29:33;;;;;;;23.00;15.95;;;;;;;;;;5091680;28;20027;-68
2023/04/16 04:31:59;;;;;;;26.60;16.15;;;;;;;;;;5099852;28;20039;-69
2023/04/16 04:34:25;;;;;;;22.77;15.35;;;;;;;;;;5091813;28;20091;-68
2023/04/16 04:36:51;;;;;;;24.30;15.32;;;;;;;;;;5078509;28;20478;-69
2023/04/16 04:39:19;;;;;;;22.90;14.65;;;;;;;;;;5094033;28;20051;-67
2023/04/16 04:41:45;;;;;;;23.80;15.45;;;;;;;;;;5096785;28;20035;-67
2023/04/16 04:44:11;;;;;;;22.08;14.52;;;;;;;;;;5095029;28;20043;-67
2023/04/16 04:46:37;;;;;;;24.13;15.82;;;;;;;;;;5094817;28;20027;-69
2023/04/16 04:49:03;;;;;;;24.88;16.00;;;;;;;;;;5094635;28;20376;-69
2023/04/16 04:51:30;;;;;;;31.25;16.92;;;;;;;;;;5094912;28;20077;-69
2023/04/16 04:53:56;;;;;;;26.40;15.88;;;;;;;;;;5094696;28;20073;-67
2023/04/16 04:56:22;;;;;;;26.13;16.15;;;;;;;;;;5096260;28;20032;-67
2023/04/16 04:58:49;;;;;;;28.15;16.73;;;;;;;;;;5093826;28;20020;-70
2023/04/16 05:01:15;;;;;;;33.03;17.98;;;;;;;;;;5092216;28;20042;-67
2023/04/16 05:03:41;;;;;;;29.23;17.10;;;;;;;;;;5094826;28;20459;-67
2023/04/16 05:06:07;;;;;;;27.10;16.25;;;;;;;;;;5093986;28;20020;-68
2023/04/16 05:08:33;;;;;;;25.92;16.08;;;;;;;;;;5093959;28;20077;-67
2023/04/16 05:10:59;;;;;;;25.60;16.25;;;;;;;;;;5090582;28;20020;-67
2023/04/16 05:13:25;;;;;;;28.15;15.80;;;;;;;;;;5095143;28;20536;-67
2023/04/16 05:15:51;;;;;;;24.50;15.77;;;;;;;;;;5080354;28;20032;-69
2023/04/16 05:18:17;;;;;;;26.90;16.48;;;;;;;;;;5096694;28;20039;-67
2023/04/16 05:20:43;;;;;;;29.33;17.00;;;;;;;;;;5094885;28;20020;-67
2023/04/16 05:23:10;;;;;;;27.95;16.60;;;;;;;;;;5093385;28;20081;-67
2023/04/16 05:25:36;;;;;;;25.55;16.33;;;;;;;;;;5094903;28;20028;-67
2023/04/16 05:28:02;;;;;;;27.50;16.83;;;;;;;;;;5093120;28;20491;-67
2023/04/16 05:30:28;;;;;;;29.05;16.52;;;;;;;;;;5096462;28;20103;-68
2023/04/16 05:32:53;;;;;;;30.33;19.02;;;;;;;;;;5090249;28;20055;-68
2023/04/16 05:35:20;;;;;;;33.83;20.83;;;;;;;;;;5094280;28;20115;-67
2023/04/16 05:37:46;;;;;;;40.78;23.40;;;;;;;;;;5093678;28;20040;-66
2023/04/16 05:40:12;;;;;;;43.63;25.30;;;;;;;;;;5083425;28;20044;-68
2023/04/16 05:42:38;;;;;;;46.85;25.85;;;;;;;;;;5090722;28;20024;-67
2023/04/16 05:45:05;;;;;;;44.22;25.67;;;;;;;;;;5092894;28;20022;-68
2023/04/16 05:47:31;;;;;;;47.65;27.33;;;;;;;;;;5095357;28;20023;-67
2023/04/16 05:49:57;;;;;;;48.17;25.98;;;;;;;;;;5091410;28;20399;-68
2023/04/16 05:52:22;;;;;;;49.88;27.23;;;;;;;;;;5081192;28;20060;-68
2023/04/16 05:54:48;;;;;;;45.10;27.33;;;;;;;;;;5095659;28;20069;-69
2023/04/16 05:57:15;;;;;;;47.42;26.98;;;;;;;;;;5085863;28;20054;-68
2023/04/16 05:59:41;;;;;;;50.85;28.85;;;;;;;;;;5092129;28;20044;-67
2023/04/16 06:02:07;;;;;;;54.85;30.98;;;;;;;;;;5090884;28;20032;-67
2023/04/16 06:04:34;;;;;;;55.40;30.50;;;;;;;;;;5093929;28;20031;-70
2023/04/16 06:07:00;;;;;;;59.10;31.25;;;;;;;;;;5090317;28;20020;-67
2023/04/16 06:09:27;;;;;;;58.75;31.92;;;;;;;;;;5089331;28;20024;-68
2023/04/16 06:11:53;;;;;;;60.97;32.55;;;;;;;;;;5092527;28;20028;-68
2023/04/16 06:14:19;;;;;;;60.22;32.08;;;;;;;;;;5093865;28;20525;-67
2023/04/16 06:16:45;;;;;;;60.45;32.58;;;;;;;;;;5093389;28;20032;-67
2023/04/16 06:19:11;;;;;;;61.55;32.45;;;;;;;;;;5092743;28;20113;-68
2023/04/16 06:21:37;;;;;;;60.05;32.20;;;;;;;;;;5093230;28;20063;-66
2023/04/16 06:24:03;;;;;;;60.53;32.88;;;;;;;;;;5092569;28;20016;-72
2023/04/16 06:26:29;;;;;;;65.40;34.78;;;;;;;;;;5094734;28;20035;-69
2023/04/16 06:28:55;;;;;;;65.90;33.53;;;;;;;;;;5090639;28;20406;-69
2023/04/16 06:31:21;;;;;;;55.40;31.45;;;;;;;;;;5093223;28;20640;-71
2023/04/16 06:33:47;;;;;;;54.95;31.40;;;;;;;;;;5103338;28;20483;-70
2023/04/16 06:36:13;;;;;;;57.58;30.77;;;;;;;;;;5092334;28;20051;-69
2023/04/16 06:38:39;;;;;;;57.95;30.17;;;;;;;;;;5092727;28;20123;-70
2023/04/16 06:41:05;;;;;;;49.95;29.50;;;;;;;;;;5091787;28;20068;-70
2023/04/16 06:43:32;;;;;;;52.90;29.98;;;;;;;;;;5094703;28;20028;-70
2023/04/16 06:45:58;;;;;;;50.05;29.58;;;;;;;;;;5091705;28;20344;-70
2023/04/16 06:48:24;;;;;;;58.33;32.92;;;;;;;;;;5103664;28;20050;-70
2023/04/16 06:50:50;;;;;;;57.45;32.17;;;;;;;;;;5091712;28;20032;-70
2023/04/16 06:53:16;;;;;;;55.88;32.22;;;;;;;;;;5092472;28;20373;-70
2023/04/16 06:55:42;;;;;;;56.78;33.00;;;;;;;;;;5103664;28;20031;-69
2023/04/16 06:58:08;;;;;;;57.75;32.38;;;;;;;;;;5092750;28;20020;-68
2023/04/16 07:00:34;;;;;;;55.13;30.10;;;;;;;;;;5087002;28;20107;-68
2023/04/16 07:03:02;;;;;;;56.80;31.08;;;;;;;;;;5093700;28;20027;-68
2023/04/16 07:05:27;;;;;;;52.53;29.75;;;;;;;;;;5092529;28;20517;-68
2023/04/16 07:07:56;;;;;;;50.42;29.27;;;;;;;;;;5091674;28;20107;-68
2023/04/16 07:10:22;;;;;;;53.20;30.73;;;;;;;;;;5083820;28;20024;-68
2023/04/16 07:12:48;;;;;;;59.88;32.63;;;;;;;;;;5091882;28;20361;-68
2023/04/16 07:15:14;;;;;;;51.67;30.23;;;;;;;;;;5092114;28;20094;-68
2023/04/16 07:17:40;;;;;;;51.97;30.58;;;;;;;;;;5092041;28;20020;-68
2023/04/16 07:20:06;;;;;;;50.28;29.52;;;;;;;;;;5090732;28;20035;-68
2023/04/16 07:22:32;;;;;;;57.08;31.02;;;;;;;;;;5093308;28;20031;-67
2023/04/16 07:24:58;;;;;;;48.15;29.02;;;;;;;;;;5093951;28;20054;-68
2023/04/16 07:27:24;;;;;;;45.22;27.48;;;;;;;;;;5091883;28;20103;-68
2023/04/16 07:29:50;;;;;;;51.13;28.33;;;;;;;;;;5060387;28;20028;-68
2023/04/16 07:32:16;;;;;;;48.08;27.80;;;;;;;;;;5087303;28;20480;-68
2023/04/16 07:34:42;;;;;;;44.45;26.98;;;;;;;;;;5091754;28;20020;-68
2023/04/16 07:37:08;;;;;;;46.80;27.77;;;;;;;;;;5057827;28;20024;-68
2023/04/16 07:39:34;;;;;;;42.10;26.70;;;;;;;;;;5091773;28;20024;-69
2023/04/16 07:42:01;;;;;;;45.15;27.17;;;;;;;;;;5091052;28;20028;-68
2023/04/16 07:44:27;;;;;;;43.53;25.58;;;;;;;;;;5085875;28;20489;-68
2023/04/16 07:46:52;;;;;;;38.83;24.65;;;;;;;;;;5087993;28;20077;-68
2023/04/16 07:49:19;;;;;;;37.63;24.77;;;;;;;;;;5089645;28;20025;-69
2023/04/16 07:51:45;;;;;;;39.63;24.73;;;;;;;;;;5087029;28;20544;-68
2023/04/16 07:54:10;;;;;;;44.78;25.35;;;;;;;;;;5091456;28;20132;-68
2023/04/16 07:56:36;;;;;;;44.00;25.38;;;;;;;;;;5101276;28;20099;-68
2023/04/16 07:59:02;;;;;;;41.13;26.15;;;;;;;;;;5090997;28;20078;-68
2023/04/16 08:01:29;;;;;;;41.65;25.33;;;;;;;;;;5092704;28;20032;-68
2023/04/16 08:03:55;;;;;;;40.35;24.70;;;;;;;;;;5091035;28;20032;-68
2023/04/16 08:06:21;;;;;;;36.22;24.05;;;;;;;;;;5091067;28;20103;-68
2023/04/16 08:08:46;;;;;;;36.67;23.17;;;;;;;;;;5088873;28;20433;-68
2023/04/16 08:11:12;;;;;;;36.65;23.45;;;;;;;;;;5089650;28;20029;-67
2023/04/16 08:13:39;;;;;;;40.72;24.77;;;;;;;;;;5091837;28;20063;-67
2023/04/16 08:16:05;;;;;;;42.85;23.48;;;;;;;;;;5090340;28;20027;-67
2023/04/16 08:18:31;;;;;;;36.25;22.25;;;;;;;;;;5091437;28;20024;-68
2023/04/16 08:20:57;;;;;;;34.83;22.27;;;;;;;;;;5090055;28;20025;-68
2023/04/16 08:23:23;;;;;;;35.30;22.75;;;;;;;;;;5091370;28;20070;-68
2023/04/16 08:25:49;;;;;;;33.97;21.50;;;;;;;;;;5087694;28;20075;-69
2023/04/16 08:28:15;;;;;;;33.67;22.10;;;;;;;;;;5095886;28;20016;-68
2023/04/16 08:30:41;;;;;;;32.78;21.23;;;;;;;;;;5095804;28;20441;-69
2023/04/16 08:33:07;;;;;;;36.38;21.65;;;;;;;;;;5089996;28;20031;-70
2023/04/16 08:35:33;;;;;;;32.92;21.25;;;;;;;;;;5091340;28;20056;-69
2023/04/16 08:38:00;;;;;;;32.03;20.75;;;;;;;;;;5089501;28;20059;-69
2023/04/16 08:40:28;;;;;;;30.65;20.35;;;;;;;;;;5090452;28;20036;-70
2023/04/16 08:42:55;;;;;;;30.20;20.35;;;;;;;;;;5086854;28;20070;-69
2023/04/16 08:45:21;;;;;;;32.40;21.38;;;;;;;;;;5097287;28;20025;-68
2023/04/16 08:47:48;;;;;;;30.48;20.60;;;;;;;;;;5090628;28;20028;-69
2023/04/16 08:50:18;;;;;;;28.67;20.40;;;;;;;;;;5090481;28;20052;-68
2023/04/16 08:52:51;;;;;;;33.15;22.02;;;;;;;;;;5088733;28;20051;-68
2023/04/16 08:55:19;;;;;;;34.22;22.40;;;;;;;;;;5092745;28;20389;-69
2023/04/16 08:57:50;;;;;;;34.75;22.08;;;;;;;;;;5090815;28;20023;-68
2023/04/16 09:00:16;;;;;;;33.20;22.38;;;;;;;;;;5088627;28;20081;-70
2023/04/16 09:02:42;;;;;;;37.42;22.90;;;;;;;;;;5077994;28;20370;-70
2023/04/16 09:05:15;;;;;;;33.85;21.98;;;;;;;;;;5090364;28;20549;-71
2023/04/16 09:07:42;;;;;;;31.58;21.27;;;;;;;;;;5090648;28;20398;-69
2023/04/16 09:10:08;;;;;;;32.85;20.38;;;;;;;;;;5085624;28;20096;-69
2023/04/16 09:12:35;;;;;;;29.15;19.88;;;;;;;;;;5090439;28;20131;-68
2023/04/16 09:15:02;;;;;;;31.83;20.67;;;;;;;;;;5089925;28;20514;-67
2023/04/16 09:17:28;;;;;;;32.05;20.08;;;;;;;;;;5087594;28;20028;-67
2023/04/16 09:19:54;;;;;;;30.10;20.25;;;;;;;;;;5072511;28;20380;-67
2023/04/16 09:22:20;;;;;;;30.48;20.45;;;;;;;;;;5089596;28;20473;-69
2023/04/16 09:24:46;;;;;;;30.88;19.52;;;;;;;;;;5095826;28;20031;-67
2023/04/16 09:27:12;;;;;;;30.55;19.92;;;;;;;;;;5090725;28;20400;-67
2023/04/16 09:29:39;;;;;;;27.75;19.33;;;;;;;;;;5104058;28;20076;-67
2023/04/16 09:32:06;;;;;;;28.35;18.85;;;;;;;;;;5100472;28;20024;-68
2023/04/16 09:34:33;;;;;;;32.10;20.08;;;;;;;;;;5106440;28;20027;-68
2023/04/16 09:37:14;;;;;;;31.60;18.63;;;;;;;;;;5101756;28;20030;-67
2023/04/16 09:39:40;;;;;;;27.17;18.05;;;;;;;;;;5084395;28;20048;-67
2023/04/16 09:42:06;;;;;;;30.15;18.80;;;;;;;;;;5096526;28;20036;-67
2023/04/16 09:44:38;;;;;;;30.75;18.55;;;;;;;;;;5109224;28;20041;-67
2023/04/16 09:47:08;;;;;;;29.20;18.08;;;;;;;;;;5103961;28;20020;-67
2023/04/16 09:49:42;;;;;;;29.88;19.85;;;;;;;;;;5108677;28;20034;-68
2023/04/16 09:52:14;;;;;;;32.22;19.35;;;;;;;;;;5081824;28;20558;-68
2023/04/16 09:54:46;;;;;;;30.45;19.00;;;;;;;;;;5096133;28;20054;-68
2023/04/16 09:57:12;;;;;;;29.83;19.52;;;;;;;;;;5099049;28;20473;-69
2023/04/16 09:59:38;;;;;;;31.17;19.60;;;;;;;;;;5089016;28;20056;-69
2023/04/16 10:02:07;;;;;;;32.28;19.75;;;;;;;;;;5083882;28;20815;-68
2023/04/16 10:04:45;;;;;;;32.22;19.08;;;;;;;;;;5088654;28;20020;-68
2023/04/16 10:07:12;;;;;;;32.00;19.70;;;;;;;;;;5094400;28;20139;-69
2023/04/16 10:09:38;;;;;;;31.05;18.05;;;;;;;;;;5069476;28;20456;-69
2023/04/16 10:12:07;;;;;;;31.42;19.20;;;;;;;;;;5101518;28;20101;-68
2023/04/16 10:14:34;;;;;;;33.67;19.63;;;;;;;;;;5108445;28;20038;-68
2023/04/16 10:17:00;;;;;;;32.72;19.73;;;;;;;;;;5102458;28;20016;-68
2023/04/16 10:19:27;;;;;;;30.70;18.95;;;;;;;;;;5108010;28;20058;-69
2023/04/16 10:21:53;;;;;;;31.45;19.42;;;;;;;;;;5102981;28;20073;-69
2023/04/16 10:24:19;;;;;;;31.42;20.38;;;;;;;;;;5097230;28;20035;-70
2023/04/16 10:26:46;;;;;;;37.03;20.95;;;;;;;;;;5094418;28;20078;-69
2023/04/16 10:29:12;;;;;;;35.28;20.55;;;;;;;;;;5086760;28;20601;-70
2023/04/16 10:31:39;;;;;;;34.70;19.67;;;;;;;;;;5101210;28;20489;-68
2023/04/16 10:34:05;;;;;;;31.48;19.10;;;;;;;;;;5086929;28;20024;-69
2023/04/16 10:36:35;;;;;;;36.53;20.67;;;;;;;;;;5111319;28;20101;-69
2023/04/16 10:39:01;;;;;;;34.08;18.88;;;;;;;;;;5109461;28;20051;-68
2023/04/16 10:41:27;;;;;;;32.00;19.40;;;;;;;;;;5101918;28;20111;-72
2023/04/16 10:44:04;;;;;;;29.15;18.33;;;;;;;;;;5093054;28;20476;-69
2023/04/16 10:46:32;;;;;;;27.95;17.58;;;;;;;;;;5092515;28;20469;-68
2023/04/16 10:49:02;;;;;;;28.75;17.45;;;;;;;;;;5090301;28;20016;-69
2023/04/16 10:51:35;;;;;;;31.35;17.65;;;;;;;;;;5092505;28;20024;-69
2023/04/16 10:54:15;;;;;;;31.27;18.33;;;;;;;;;;5091954;28;20416;-69
2023/04/16 10:56:43;;;;;;;26.85;16.85;;;;;;;;;;5097812;28;20024;-68
2023/04/16 10:59:10;;;;;;;29.55;16.90;;;;;;;;;;5092121;28;20024;-69
2023/04/16 11:01:43;;;;;;;25.67;16.30;;;;;;;;;;5080799;28;20109;-68
2023/04/16 11:04:21;;;;;;;24.38;14.98;;;;;;;;;;5090067;28;20020;-69
2023/04/16 11:07:03;;;;;;;23.27;14.85;;;;;;;;;;5092250;28;20042;-70
2023/04/16 11:09:48;;;;;;;23.05;15.25;;;;;;;;;;5084448;28;20051;-69
2023/04/16 11:12:15;;;;;;;24.35;15.25;;;;;;;;;;5088594;28;20058;-69
2023/04/16 11:14:41;;;;;;;22.85;14.50;;;;;;;;;;5092341;28;20473;-69
2023/04/16 11:17:08;;;;;;;22.70;13.88;;;;;;;;;;5091263;28;20157;-69
2023/04/16 11:19:37;;;;;;;21.35;13.75;;;;;;;;;;5093760;28;20060;-69
2023/04/16 11:22:04;;;;;;;20.67;13.40;;;;;;;;;;5090691;28;20434;-69
2023/04/16 11:24:30;;;;;;;20.95;12.90;;;;;;;;;;5086512;28;20028;-68
2023/04/16 11:26:56;;;;;;;20.60;12.57;;;;;;;;;;5093282;28;20033;-69
2023/04/16 11:29:22;;;;;;;17.83;10.98;;;;;;;;;;5091040;28;20032;-70
2023/04/16 11:31:51;;;;;;;18.35;11.32;;;;;;;;;;5096635;28;20039;-71
2023/04/16 11:34:18;;;;;;;19.33;12.15;;;;;;;;;;5097554;28;20514;-69
2023/04/16 11:36:45;;;;;;;18.67;11.60;;;;;;;;;;5105089;28;20031;-69
2023/04/16 11:39:11;;;;;;;15.88;10.82;;;;;;;;;;5092211;28;20047;-68
2023/04/16 11:41:47;;;;;;;18.08;11.38;;;;;;;;;;5105576;28;20449;-68
2023/04/16 11:44:20;;;;;;;17.17;11.38;;;;;;;;;;5104121;28;20114;-68
2023/04/16 11:46:46;;;;;;;14.10;8.88;;;;;;;;;;5093732;28;20054;-68
2023/04/16 11:49:12;;;;;;;17.27;10.65;;;;;;;;;;5105515;28;20024;-68
2023/04/16 11:51:39;;;;;;;14.77;9.07;;;;;;;;;;5095966;28;20028;-68
2023/04/16 11:54:06;;;;;;;12.48;8.02;;;;;;;;;;5093388;28;20103;-69
2023/04/16 11:56:34;;;;;;;11.55;8.40;;;;;;;;;;5102624;28;20511;-66
2023/04/16 11:59:16;;;;;;;13.75;8.38;;;;;;;;;;5090025;28;20035;-66
2023/04/16 12:01:46;;;;;;;11.23;7.80;;;;;;;;;;5093457;28;20028;-66
2023/04/16 12:04:13;;;;;;;12.57;7.78;;;;;;;;;;5089823;28;20032;-67
2023/04/16 12:06:39;;;;;;;14.55;7.57;;;;;;;;;;5081747;28;20043;-66
2023/04/16 12:09:26;;;;;;;10.93;7.57;;;;;;;;;;5073572;28;20543;-69
2023/04/16 12:11:53;;;;;;;11.57;8.23;;;;;;;;;;5088840;28;20128;-68
2023/04/16 12:14:19;;;;;;;9.52;7.20;;;;;;;;;;5093670;28;20051;-68
2023/04/16 12:16:45;;;;;;;14.02;8.10;;;;;;;;;;5091258;28;20072;-67
2023/04/16 12:19:12;;;;;;;11.38;7.43;;;;;;;;;;5092741;28;20028;-68
2023/04/16 12:21:39;;;;;;;11.20;7.18;;;;;;;;;;5091009;28;20024;-68
2023/04/16 12:24:06;;;;;;;9.45;6.82;;;;;;;;;;5091545;28;20491;-69
2023/04/16 12:26:35;;;;;;;9.52;6.80;;;;;;;;;;5086214;28;20028;-67
2023/04/16 12:29:14;;;;;;;9.90;6.88;;;;;;;;;;5083032;28;20028;-67
2023/04/16 12:31:40;;;;;;;11.02;7.28;;;;;;;;;;5087475;28;20093;-67
2023/04/16 12:34:06;;;;;;;8.18;5.82;;;;;;;;;;5089238;28;20036;-68
2023/04/16 12:36:32;;;;;;;9.80;6.05;;;;;;;;;;5090083;28;20039;-68
2023/04/16 12:38:58;;;;;;;11.52;6.35;;;;;;;;;;5088614;28;20044;-69
2023/04/16 12:41:24;;;;;;;8.40;5.90;;;;;;;;;;5098524;28;20346;-68
2023/04/16 12:43:50;;;;;;;9.50;6.88;;;;;;;;;;5089471;28;20084;-70
2023/04/16 12:46:16;;;;;;;9.60;6.65;;;;;;;;;;5093574;28;20036;-68
2023/04/16 12:48:42;;;;;;;8.45;6.30;;;;;;;;;;5101426;28;20353;-68
2023/04/16 12:51:08;;;;;;;9.38;6.38;;;;;;;;;;5099318;28;20024;-68
2023/04/16 12:53:34;;;;;;;10.40;7.22;;;;;;;;;;5095191;28;20036;-69
2023/04/16 12:56:00;;;;;;;10.75;6.60;;;;;;;;;;5091850;28;20031;-68
2023/04/16 12:58:26;;;;;;;9.68;6.43;;;;;;;;;;5093223;28;20036;-67
2023/04/16 13:00:52;;;;;;;9.27;6.65;;;;;;;;;;5091466;28;20020;-71
2023/04/16 13:03:19;;;;;;;11.32;7.35;;;;;;;;;;5076833;28;20067;-66
2023/04/16 13:05:45;;;;;;;11.60;6.35;;;;;;;;;;5090452;28;20024;-67
2023/04/16 13:08:11;;;;;;;11.63;6.82;;;;;;;;;;5092104;28;20035;-67
2023/04/16 13:10:37;;;;;;;9.10;7.28;;;;;;;;;;5090908;28;20047;-67
2023/04/16 13:13:03;;;;;;;9.50;7.15;;;;;;;;;;5091650;28;20035;-67
2023/04/16 13:15:29;;;;;;;11.63;7.00;;;;;;;;;;5093057;28;20016;-67
2023/04/16 13:17:55;;;;;;;10.90;7.00;;;;;;;;;;5098821;28;20582;-67
2023/04/16 13:20:21;;;;;;;10.98;7.80;;;;;;;;;;5100765;28;20027;-66
2023/04/16 13:22:47;;;;;;;10.57;7.90;;;;;;;;;;5103240;28;20035;-67
2023/04/16 13:25:14;;;;;;;12.63;7.70;;;;;;;;;;5093221;28;20054;-66
2023/04/16 13:27:40;;;;;;;12.18;8.35;;;;;;;;;;5087763;28;20032;-67
2023/04/16 13:30:06;;;;;;;10.70;7.47;;;;;;;;;;5093929;28;20181;-66
2023/04/16 13:32:32;;;;;;;10.30;7.45;;;;;;;;;;5095671;28;20028;-67
2023/04/16 13:34:58;;;;;;;13.18;8.88;;;;;;;;;;5098611;28;20026;-67
2023/04/16 13:37:24;;;;;;;12.88;8.50;;;;;;;;;;5076876;28;20123;-67
2023/04/16 13:39:50;;;;;;;12.95;8.85;;;;;;;;;;5093731;28;20032;-68
2023/04/16 13:42:16;;;;;;;12.60;9.05;;;;;;;;;;5092652;28;20096;-67
2023/04/16 13:44:42;;;;;;;11.63;8.05;;;;;;;;;;5087475;28;20476;-67
2023/04/16 13:47:10;;;;;;;11.48;8.30;;;;;;;;;;5085637;28;20012;-66
2023/04/16 13:49:36;;;;;;;12.25;8.35;;;;;;;;;;5093545;28;20044;-66
2023/04/16 13:52:02;;;;;;;11.93;9.13;;;;;;;;;;5098759;28;20032;-67
2023/04/16 13:54:28;;;;;;;14.15;9.40;;;;;;;;;;5110529;28;20035;-67
2023/04/16 13:56:54;;;;;;;12.70;8.65;;;;;;;;;;5106754;28;20032;-67
2023/04/16 13:59:20;;;;;;;13.00;8.85;;;;;;;;;;5112003;28;20376;-66
2023/04/16 14:01:46;;;;;;;14.23;9.50;;;;;;;;;;5094786;28;20035;-67
2023/04/16 14:04:12;;;;;;;13.73;9.30;;;;;;;;;;5102441;28;20042;-66
2023/04/16 14:06:38;;;;;;;13.90;10.15;;;;;;;;;;5093506;28;20028;-66
2023/04/16 14:09:04;;;;;;;13.52;9.18;;;;;;;;;;5086355;28;20107;-67
2023/04/16 14:11:30;;;;;;;13.18;9.52;;;;;;;;;;5085341;28;20050;-66
2023/04/16 14:13:57;;;;;;;12.73;9.38;;;;;;;;;;5091844;28;20108;-66
2023/04/16 14:16:23;;;;;;;14.35;10.18;;;;;;;;;;5092412;28;20050;-67